Lower Yukon Fax Sheet

SIGMETs

Area Forecast for Lower Yukon
LWR YKN VLY FF...VALID UNTIL 251600
...CLOUDS/WX...
FEW045 SCT060 BKN070 TOP 130 LYRS ABV TO 170.
TIL 08Z NE PAKV-PAMC LN ISOL BKN060CB MAX TOP FL250 -TSRA.
TIL 08Z KUSKOKWIM MTS ISOL BKN070TCU MAX TOP FL200 -SHRA.
OTLK VALID 251600-252200...VFR.
...TURB...
NIL SIG EXC VCY CB/TCU.
...ICE AND FZLVL...
NIL SIG EXC VCY CB/TCU. FZLVL 070.

TAFs
PAMC 250537Z 2506/2606 VRB05KT P6SM SCT100=
PAGA 250537Z 2506/2606 26009KT P6SM FEW090
     FM250900 VRB05KT P6SM FEW090=
PAUN 250537Z 2506/2606 29005KT P6SM OVC016
     FM251000 07005KT P6SM SCT010 BKN025
     FM252000 27005KT P6SM SCT010 BKN250
     FM260000 02010KT P6SM BKN250=

Observations
PATA  AA 25 0952Z FEW080 BKN100             10          56  47 00000     004  72%  56    
PAMC  AA 25 0953Z CLR                       10          55  49 00000     007  80%  55    
PAKV  AA 25 0953Z CLR                        7          45  41 00000     011  86%  45    
PARS  AA 25 0956Z BKN050                    10          49  46 25004     009  89%  47    
PAUN  AA 25 0956Z BKN021                    10          45  44 08003     012  96%  45    
PAGA  AA 25 0956Z CLR                       10          52  43 04004     009  71%  51    
PAHC  AA 25 0956Z OVC055                    10          57  47 00000     008  69%  57    
PAKK  AA 25 0956Z OVC026                    10          46  27 28004     009  47%  44    
PALG  AA 25 0956Z CLR                       10          48  46 00000     009  93%  48    
PANI  AA 25 0956Z SCT050 BKN065 OVC080      10          55  48 00000     009  77%  55    
PANV  AA 25 0956Z CLR                       10          54  41 25004     008  61%  53    
PAFS  AA 25 1001Z CLR                                   52  48 00000     006  86%  52    
PATL  AA 25 0955Z CLR                       10          57  46 00000     010  67%  57    

Pilot Reports